createdAt,value
2023-06-30T00:01:26.847Z,10.70
2023-06-30T00:03:52.925Z,9.68
2023-06-30T00:06:19.580Z,11.52
2023-06-30T00:08:45.706Z,10.57
2023-06-30T00:11:11.844Z,10.88
2023-06-30T00:13:37.689Z,12.27
2023-06-30T00:16:03.620Z,11.43
2023-06-30T00:18:29.937Z,14.07
2023-06-30T00:20:55.902Z,15.27
2023-06-30T00:23:21.730Z,15.27
2023-06-30T00:25:47.575Z,14.93
2023-06-30T00:28:13.524Z,17.25
2023-06-30T00:30:39.431Z,14.65
2023-06-30T00:33:05.319Z,16.52
2023-06-30T00:35:31.157Z,14.90
2023-06-30T00:37:57.000Z,17.90
2023-06-30T00:40:22.898Z,20.13
2023-06-30T00:42:48.728Z,17.40
2023-06-30T00:45:14.555Z,15.38
2023-06-30T00:47:40.355Z,19.90
2023-06-30T00:50:06.450Z,18.52
2023-06-30T00:52:33.041Z,21.23
2023-06-30T00:54:58.860Z,17.67
2023-06-30T00:57:24.657Z,19.05
2023-06-30T00:59:50.472Z,16.52
2023-06-30T01:02:16.297Z,19.60
2023-06-30T01:04:53.161Z,14.13
2023-06-30T01:07:19.021Z,20.45
2023-06-30T01:09:49.643Z,18.73
2023-06-30T01:12:16.360Z,16.23
2023-06-30T01:14:42.864Z,18.73
2023-06-30T01:17:09.096Z,18.13
2023-06-30T01:19:36.042Z,19.95
2023-06-30T01:22:08.653Z,18.30
2023-06-30T01:24:36.617Z,20.15
2023-06-30T01:27:02.920Z,16.42
2023-06-30T01:29:29.109Z,22.17
2023-06-30T01:31:54.961Z,21.95
2023-06-30T01:34:21.964Z,15.27
2023-06-30T01:36:48.075Z,19.13
2023-06-30T01:39:16.556Z,17.88
2023-06-30T01:41:43.272Z,18.63
2023-06-30T01:44:09.080Z,18.40
2023-06-30T01:46:35.055Z,22.27
2023-06-30T01:49:00.982Z,21.70
2023-06-30T01:51:26.846Z,19.95
2023-06-30T01:53:52.617Z,18.40
2023-06-30T01:56:18.500Z,15.15
2023-06-30T01:58:44.345Z,18.10
2023-06-30T02:01:10.168Z,17.63
2023-06-30T02:03:36.125Z,21.20
2023-06-30T02:06:03.531Z,22.13
2023-06-30T02:08:29.377Z,20.52
2023-06-30T02:10:55.371Z,19.05
2023-06-30T02:13:21.261Z,18.17
2023-06-30T02:15:47.224Z,19.02
2023-06-30T02:18:14.045Z,20.20
2023-06-30T02:20:39.882Z,17.85
2023-06-30T02:23:05.678Z,17.80
2023-06-30T02:25:31.484Z,23.88
2023-06-30T02:27:58.278Z,19.17
2023-06-30T02:30:24.264Z,16.63
2023-06-30T02:32:50.200Z,19.25
2023-06-30T02:35:16.111Z,21.60
2023-06-30T02:37:42.046Z,18.13
2023-06-30T02:40:09.512Z,19.88
2023-06-30T02:42:35.499Z,19.55
2023-06-30T02:45:01.478Z,22.33
2023-06-30T02:47:27.407Z,20.52
2023-06-30T02:49:53.233Z,19.48
2023-06-30T02:52:19.067Z,20.52
2023-06-30T02:54:44.934Z,19.95
2023-06-30T02:57:10.749Z,23.05
2023-06-30T02:59:36.547Z,19.85
2023-06-30T03:02:03.327Z,19.13
2023-06-30T03:04:29.957Z,20.05
2023-06-30T03:06:55.780Z,21.00
2023-06-30T03:09:21.610Z,19.33
2023-06-30T03:11:47.726Z,20.35
2023-06-30T03:14:13.521Z,19.83
2023-06-30T03:16:39.431Z,17.85
2023-06-30T03:19:05.289Z,22.40
2023-06-30T03:21:31.113Z,20.77
2023-06-30T03:23:57.168Z,20.83
2023-06-30T03:26:23.840Z,24.17
2023-06-30T03:28:49.692Z,20.90
2023-06-30T03:31:15.663Z,20.63
2023-06-30T03:33:41.569Z,18.38
2023-06-30T03:36:07.920Z,20.30
2023-06-30T03:38:33.759Z,23.85
2023-06-30T03:40:59.701Z,19.77
2023-06-30T03:43:25.580Z,19.45
2023-06-30T03:45:51.514Z,20.25
2023-06-30T03:48:17.759Z,16.92
2023-06-30T03:50:43.983Z,16.90
2023-06-30T03:53:10.173Z,19.33
2023-06-30T03:55:36.004Z,16.30
2023-06-30T03:58:02.286Z,22.70
2023-06-30T04:00:29.408Z,18.67
2023-06-30T04:02:55.301Z,18.98
2023-06-30T04:05:21.142Z,18.50
2023-06-30T04:07:47.057Z,21.70
2023-06-30T04:10:13.059Z,18.85
2023-06-30T04:12:39.122Z,19.92
2023-06-30T04:15:08.137Z,19.58
2023-06-30T04:17:34.184Z,16.88
2023-06-30T04:20:00.025Z,22.23
2023-06-30T04:22:25.806Z,19.30
2023-06-30T04:24:51.857Z,18.70
2023-06-30T04:27:18.031Z,18.98
2023-06-30T04:29:43.843Z,20.38
2023-06-30T04:32:09.711Z,19.38
2023-06-30T04:34:35.582Z,17.63
2023-06-30T04:37:01.403Z,17.88
2023-06-30T04:39:27.347Z,18.27
2023-06-30T04:41:53.520Z,17.90
2023-06-30T04:44:19.537Z,18.42
2023-06-30T04:46:45.700Z,17.02
2023-06-30T04:49:11.532Z,20.55
2023-06-30T04:51:37.365Z,19.13
2023-06-30T04:54:03.230Z,16.40
2023-06-30T04:56:29.076Z,16.17
2023-06-30T04:58:54.965Z,18.95
2023-06-30T05:01:20.841Z,19.52
2023-06-30T05:03:46.853Z,16.20
2023-06-30T05:06:12.772Z,16.25
2023-06-30T05:08:38.698Z,17.80
2023-06-30T05:11:09.020Z,14.95
2023-06-30T05:13:35.154Z,17.83
2023-06-30T05:16:01.442Z,15.48
2023-06-30T05:18:27.715Z,14.05
2023-06-30T05:20:53.737Z,15.60
2023-06-30T05:23:20.180Z,14.88
2023-06-30T05:25:46.260Z,14.63
2023-06-30T05:28:12.489Z,12.63
2023-06-30T05:30:39.937Z,15.35
2023-06-30T05:33:09.265Z,12.27
2023-06-30T05:35:35.387Z,13.32
2023-06-30T05:38:01.525Z,14.25
2023-06-30T05:40:27.898Z,13.68
2023-06-30T05:42:57.388Z,12.70
2023-06-30T05:45:23.860Z,15.43
2023-06-30T05:47:50.300Z,14.43
2023-06-30T05:50:17.804Z,13.07
2023-06-30T05:52:44.142Z,13.95
2023-06-30T05:55:10.268Z,14.13
2023-06-30T05:57:36.553Z,13.95
2023-06-30T06:00:05.677Z,16.40
2023-06-30T06:02:31.813Z,14.10
2023-06-30T06:04:58.299Z,16.73
2023-06-30T06:07:24.595Z,13.85
2023-06-30T06:09:50.959Z,15.27
2023-06-30T06:12:17.212Z,14.15
2023-06-30T06:14:43.319Z,13.77
2023-06-30T06:17:09.470Z,13.75
2023-06-30T06:19:35.696Z,14.93
2023-06-30T06:22:01.859Z,14.13
2023-06-30T06:24:27.916Z,14.18
2023-06-30T06:26:53.892Z,15.02
2023-06-30T06:29:22.381Z,16.35
2023-06-30T06:31:49.852Z,16.10
2023-06-30T06:34:16.260Z,15.13
2023-06-30T06:36:44.697Z,15.25
2023-06-30T06:39:12.373Z,16.75
2023-06-30T06:41:39.153Z,15.02
2023-06-30T06:44:05.584Z,14.93
2023-06-30T06:46:31.951Z,16.30
2023-06-30T06:48:57.893Z,16.27
2023-06-30T06:51:24.316Z,16.27
2023-06-30T06:53:52.613Z,17.85
2023-06-30T06:56:18.836Z,17.70
2023-06-30T06:58:45.815Z,17.60
2023-06-30T07:01:12.493Z,16.55
2023-06-30T07:03:39.061Z,17.27
2023-06-30T07:06:07.067Z,15.93
2023-06-30T07:08:36.235Z,19.20
2023-06-30T07:11:11.943Z,19.02
2023-06-30T07:13:39.059Z,17.13
2023-06-30T07:16:05.258Z,19.35
2023-06-30T07:18:38.120Z,18.63
2023-06-30T07:21:04.608Z,15.68
2023-06-30T07:23:30.932Z,18.20
2023-06-30T07:25:57.028Z,17.02
2023-06-30T07:28:23.007Z,16.42
2023-06-30T07:30:49.414Z,17.17
2023-06-30T07:33:15.431Z,18.45
2023-06-30T07:35:41.690Z,18.20
2023-06-30T07:38:07.760Z,19.63
2023-06-30T07:43:09.217Z,18.85
2023-06-30T07:45:35.431Z,18.75
2023-06-30T07:48:02.216Z,17.23
2023-06-30T07:50:28.891Z,20.20
2023-06-30T07:52:55.016Z,17.10
2023-06-30T07:55:22.153Z,19.63
2023-06-30T07:57:48.738Z,17.80
2023-06-30T08:00:21.473Z,18.25
2023-06-30T08:02:47.876Z,19.20
2023-06-30T08:05:16.782Z,19.33
2023-06-30T08:07:49.351Z,20.92
2023-06-30T08:10:17.653Z,17.00
2023-06-30T08:12:43.927Z,15.90
2023-06-30T08:15:10.061Z,17.88
2023-06-30T08:17:52.086Z,18.65
2023-06-30T08:20:22.395Z,19.83
2023-06-30T08:22:48.451Z,22.08
2023-06-30T08:25:14.350Z,20.77
2023-06-30T08:27:40.233Z,24.67
2023-06-30T08:30:07.147Z,20.67
2023-06-30T08:32:33.297Z,23.20
2023-06-30T08:34:59.628Z,25.05
2023-06-30T08:37:26.541Z,24.02
2023-06-30T08:39:52.604Z,24.48
2023-06-30T08:42:20.524Z,23.98
2023-06-30T08:44:50.481Z,25.52
2023-06-30T08:47:18.007Z,49.55
2023-06-30T08:49:43.955Z,22.70
2023-06-30T08:52:10.202Z,22.95
2023-06-30T08:54:36.713Z,25.33
2023-06-30T08:57:03.987Z,25.08
2023-06-30T08:59:29.962Z,22.23
2023-06-30T09:01:57.405Z,25.08
2023-06-30T09:04:23.596Z,24.90
2023-06-30T09:06:49.829Z,21.88
2023-06-30T09:09:31.621Z,23.17
2023-06-30T09:12:01.223Z,24.27
2023-06-30T09:14:34.361Z,23.47
2023-06-30T09:17:00.918Z,28.42
2023-06-30T09:19:27.226Z,28.00
2023-06-30T09:21:53.981Z,22.77
2023-06-30T09:24:20.217Z,23.75
2023-06-30T09:26:46.260Z,24.45
2023-06-30T09:29:13.231Z,21.42
2023-06-30T09:31:39.681Z,21.05
2023-06-30T09:34:09.936Z,19.63
2023-06-30T09:36:38.203Z,22.85
2023-06-30T09:39:11.720Z,21.20
2023-06-30T09:41:45.079Z,23.50
2023-06-30T09:44:11.490Z,23.98
2023-06-30T09:46:46.463Z,26.40
2023-06-30T09:49:32.355Z,21.52
2023-06-30T09:51:58.918Z,20.83
2023-06-30T09:54:39.446Z,24.20
2023-06-30T09:57:09.420Z,29.08
2023-06-30T09:59:35.446Z,19.85
2023-06-30T10:02:05.335Z,24.02
2023-06-30T10:04:31.639Z,20.95
2023-06-30T10:06:58.806Z,22.10
2023-06-30T10:09:25.464Z,23.27
2023-06-30T10:12:03.960Z,19.23
2023-06-30T10:14:36.233Z,18.45
2023-06-30T10:17:03.174Z,16.23
2023-06-30T10:21:55.921Z,18.88
2023-06-30T10:24:26.269Z,18.83
2023-06-30T10:26:54.077Z,15.77
2023-06-30T10:29:20.769Z,16.42
2023-06-30T10:31:47.466Z,16.85
2023-06-30T10:34:13.641Z,18.85
2023-06-30T10:36:39.896Z,19.00
2023-06-30T10:39:06.624Z,19.88
2023-06-30T10:41:50.933Z,22.00
2023-06-30T10:44:20.292Z,22.55
2023-06-30T10:46:53.127Z,21.10
2023-06-30T10:49:26.963Z,22.88
2023-06-30T10:51:56.646Z,24.27
2023-06-30T10:54:27.439Z,25.20
2023-06-30T10:57:05.273Z,19.65
2023-06-30T10:59:39.047Z,23.15
2023-06-30T11:02:23.266Z,22.92
2023-06-30T11:04:51.482Z,22.17
2023-06-30T11:07:28.038Z,23.15
2023-06-30T11:10:15.178Z,21.45
2023-06-30T11:27:33.050Z,24.45
2023-06-30T11:30:06.458Z,25.60
2023-06-30T11:35:25.377Z,25.17
2023-06-30T11:43:58.923Z,32.85
2023-06-30T11:46:28.224Z,20.42
2023-06-30T11:54:20.075Z,10.35
2023-06-30T11:56:47.469Z,9.40
2023-06-30T11:59:13.580Z,10.95
2023-06-30T12:04:23.765Z,7.45
2023-06-30T12:13:05.876Z,10.98
2023-06-30T12:15:42.458Z,8.90
2023-06-30T12:23:33.545Z,10.18
2023-06-30T12:34:14.670Z,10.15
2023-06-30T12:36:42.520Z,10.18
2023-06-30T12:42:11.895Z,9.75
2023-06-30T12:44:38.078Z,8.82
2023-06-30T12:47:11.556Z,10.25
2023-06-30T12:49:38.133Z,11.70
2023-06-30T12:54:46.803Z,9.20
2023-06-30T12:57:13.493Z,9.65
2023-06-30T12:59:39.721Z,9.88
2023-06-30T13:02:07.859Z,10.77
2023-06-30T13:04:34.428Z,8.00
2023-06-30T13:07:01.248Z,7.72
2023-06-30T13:12:26.766Z,9.73
2023-06-30T13:14:53.912Z,10.18
2023-06-30T13:17:21.264Z,8.95
2023-06-30T13:19:48.211Z,8.80
2023-06-30T13:22:24.354Z,7.55
2023-06-30T13:24:50.919Z,8.65
2023-06-30T13:27:17.438Z,9.80
2023-06-30T13:29:44.027Z,8.85
2023-06-30T13:32:10.789Z,8.63
2023-06-30T13:34:37.509Z,7.40
2023-06-30T13:37:04.045Z,9.38
2023-06-30T13:39:30.077Z,6.88
2023-06-30T13:41:56.243Z,7.53
2023-06-30T13:44:22.670Z,5.03
2023-06-30T13:46:49.004Z,7.32
2023-06-30T13:49:15.242Z,5.85
2023-06-30T13:51:43.140Z,5.82
2023-06-30T13:54:09.336Z,5.38
2023-06-30T13:56:35.930Z,4.82
2023-06-30T13:59:01.883Z,6.10
2023-06-30T14:01:29.508Z,4.47
2023-06-30T14:03:56.991Z,4.68
2023-06-30T14:06:22.934Z,5.18
2023-06-30T14:08:53.662Z,4.45
2023-06-30T14:11:21.122Z,5.13
2023-06-30T14:13:48.488Z,4.45
2023-06-30T14:16:15.034Z,6.18
2023-06-30T14:18:41.135Z,3.42
2023-06-30T14:21:07.214Z,5.30
2023-06-30T14:23:34.214Z,4.72
2023-06-30T14:26:01.372Z,6.38
2023-06-30T14:28:27.439Z,3.05
2023-06-30T14:30:53.585Z,6.47
2023-06-30T14:33:19.696Z,7.28
2023-06-30T14:35:46.061Z,3.33
2023-06-30T14:38:12.580Z,5.90
2023-06-30T14:40:45.220Z,4.43
2023-06-30T14:43:11.211Z,6.43
2023-06-30T14:45:37.326Z,2.67
2023-06-30T14:48:03.432Z,5.63
2023-06-30T14:50:30.009Z,4.75
2023-06-30T14:52:56.432Z,2.35
2023-06-30T14:55:22.596Z,4.63
2023-06-30T14:57:50.600Z,3.00
2023-06-30T15:00:16.903Z,3.05
2023-06-30T15:02:43.397Z,3.00
2023-06-30T15:05:09.642Z,3.90
2023-06-30T15:07:36.051Z,3.25
2023-06-30T15:10:03.762Z,2.78
2023-06-30T15:12:44.658Z,3.70
2023-06-30T15:15:10.835Z,4.95
2023-06-30T15:17:36.900Z,4.75
2023-06-30T15:20:03.496Z,2.53
2023-06-30T15:22:31.397Z,3.58
2023-06-30T15:25:00.807Z,2.97
2023-06-30T15:27:26.938Z,3.38
2023-06-30T15:29:54.337Z,4.35
2023-06-30T15:32:20.546Z,2.72
2023-06-30T15:34:46.787Z,2.78
2023-06-30T15:37:13.527Z,4.63
2023-06-30T15:39:39.671Z,3.88
2023-06-30T15:42:05.878Z,2.97
2023-06-30T15:44:33.342Z,3.55
2023-06-30T15:47:00.943Z,4.25
2023-06-30T15:49:26.995Z,4.78
2023-06-30T15:51:52.998Z,3.05
2023-06-30T15:54:19.072Z,4.13
2023-06-30T15:56:45.093Z,5.18
2023-06-30T15:59:11.840Z,3.00
2023-06-30T16:01:37.902Z,8.00
2023-06-30T16:04:04.045Z,4.32
2023-06-30T16:06:30.176Z,3.60
2023-06-30T16:08:58.548Z,5.07
2023-06-30T16:12:03.689Z,3.47
2023-06-30T16:14:29.705Z,7.25
2023-06-30T16:16:55.950Z,4.88
2023-06-30T16:19:22.193Z,3.80
2023-06-30T16:21:52.196Z,5.00
2023-06-30T16:24:18.324Z,3.92
2023-06-30T16:29:27.710Z,4.30
2023-06-30T16:32:03.361Z,3.15
2023-06-30T16:37:10.872Z,5.35
2023-06-30T16:39:36.765Z,5.20
2023-06-30T16:42:30.374Z,4.60
2023-06-30T16:44:56.960Z,3.35
2023-06-30T16:47:26.707Z,3.15
2023-06-30T17:27:11.436Z,4.47
2023-06-30T17:29:37.654Z,3.17
2023-06-30T17:34:47.317Z,2.90
2023-06-30T17:37:13.496Z,14.57
2023-06-30T17:39:39.726Z,3.40
2023-06-30T17:42:05.850Z,3.70
2023-06-30T17:44:32.372Z,2.75
2023-06-30T17:46:58.768Z,4.47
2023-06-30T17:49:33.697Z,5.05
2023-06-30T17:52:00.265Z,1.58
2023-06-30T17:54:27.476Z,3.58
2023-06-30T17:57:00.652Z,2.08
2023-06-30T17:59:31.638Z,2.80
2023-06-30T18:04:23.757Z,4.78
2023-06-30T18:07:04.964Z,4.43
2023-06-30T18:09:32.045Z,5.35
2023-06-30T18:11:58.411Z,3.85
2023-06-30T18:14:24.434Z,3.88
2023-06-30T18:16:50.412Z,4.40
2023-06-30T18:19:18.124Z,2.55
2023-06-30T18:21:44.507Z,4.60
2023-06-30T18:24:10.562Z,4.40
2023-06-30T18:26:36.791Z,2.65
2023-06-30T18:29:02.881Z,2.80
2023-06-30T18:31:29.215Z,2.97
2023-06-30T18:33:55.192Z,6.78
2023-06-30T18:36:21.171Z,5.15
2023-06-30T18:38:47.126Z,4.25
2023-06-30T18:41:13.463Z,3.80
2023-06-30T18:43:39.812Z,4.28
2023-06-30T18:46:05.810Z,3.60
2023-06-30T18:48:31.874Z,3.35
2023-06-30T18:50:57.973Z,3.33
2023-06-30T18:53:23.994Z,3.05
2023-06-30T18:55:50.370Z,3.67
2023-06-30T18:58:16.204Z,2.85
2023-06-30T19:00:42.155Z,7.70
2023-06-30T19:03:14.000Z,2.75
2023-06-30T19:05:40.023Z,3.00
2023-06-30T19:08:06.050Z,2.38
2023-06-30T19:10:32.420Z,7.85
2023-06-30T19:12:58.550Z,2.92
2023-06-30T19:15:24.609Z,2.65
2023-06-30T19:17:55.218Z,4.53
2023-06-30T19:22:47.035Z,2.72
2023-06-30T19:25:13.021Z,2.95
2023-06-30T19:27:38.916Z,2.80
2023-06-30T19:30:05.356Z,4.93
2023-06-30T19:32:34.244Z,2.70
2023-06-30T19:35:03.127Z,4.88
2023-06-30T19:37:29.675Z,5.18
2023-06-30T19:39:55.550Z,4.13
2023-06-30T19:42:21.481Z,3.72
2023-06-30T19:44:47.537Z,5.50
2023-06-30T19:47:13.871Z,2.95
2023-06-30T19:49:39.951Z,4.15
2023-06-30T19:52:06.083Z,3.83
2023-06-30T19:54:32.110Z,4.53
2023-06-30T19:56:58.232Z,3.65
2023-06-30T19:59:24.209Z,3.67
2023-06-30T20:01:55.498Z,6.43
2023-06-30T20:04:23.766Z,4.47
2023-06-30T20:06:49.707Z,5.25
2023-06-30T20:09:15.613Z,4.80
2023-06-30T20:11:42.157Z,5.25
2023-06-30T20:14:08.053Z,5.38
2023-06-30T20:16:34.038Z,5.00
2023-06-30T20:18:59.960Z,4.78
2023-06-30T20:21:25.941Z,5.55
2023-06-30T20:23:51.960Z,4.15
2023-06-30T20:26:21.066Z,4.10
2023-06-30T20:28:47.246Z,5.30
2023-06-30T20:31:13.322Z,5.18
2023-06-30T20:33:39.362Z,3.90
2023-06-30T20:36:05.369Z,4.72
2023-06-30T20:38:31.353Z,6.07
2023-06-30T20:40:57.240Z,6.63
2023-06-30T20:43:23.263Z,4.32
2023-06-30T20:45:49.769Z,4.60
2023-06-30T20:48:15.694Z,5.05
2023-06-30T20:50:41.818Z,6.18
2023-06-30T20:53:10.813Z,5.57
2023-06-30T20:55:37.357Z,6.13
2023-06-30T20:58:03.618Z,4.22
2023-06-30T21:00:30.414Z,7.55
2023-06-30T21:02:56.716Z,5.32
2023-06-30T21:05:22.988Z,4.78
2023-06-30T21:07:48.904Z,5.95
2023-06-30T21:10:16.173Z,4.32
2023-06-30T21:12:42.544Z,7.78
2023-06-30T21:15:09.117Z,4.43
2023-06-30T21:17:35.120Z,6.25
2023-06-30T21:20:02.503Z,5.72
2023-06-30T21:22:28.415Z,5.38
2023-06-30T21:24:54.238Z,4.28
2023-06-30T21:27:32.405Z,4.45
2023-06-30T21:29:58.321Z,6.40
2023-06-30T21:32:24.332Z,3.85
2023-06-30T21:34:50.418Z,4.20
2023-06-30T21:37:16.457Z,5.38
2023-06-30T21:39:42.352Z,3.88
2023-06-30T21:42:09.340Z,6.38
2023-06-30T21:44:35.160Z,6.50
2023-06-30T21:47:00.981Z,5.38
2023-06-30T21:49:26.846Z,4.95
2023-06-30T21:51:52.682Z,5.20
2023-06-30T21:54:27.174Z,5.60
2023-06-30T21:57:02.468Z,7.10
2023-06-30T21:59:28.291Z,8.38
2023-06-30T22:01:54.208Z,4.18
2023-06-30T22:04:20.094Z,4.68
2023-06-30T22:06:48.692Z,8.27
2023-06-30T22:09:16.261Z,6.47
2023-06-30T22:11:43.663Z,5.82
2023-06-30T22:14:09.521Z,7.60
2023-06-30T22:16:35.302Z,7.93
2023-06-30T22:19:01.116Z,9.25
2023-06-30T22:21:26.973Z,5.80
2023-06-30T22:23:52.762Z,9.00
2023-06-30T22:26:18.759Z,6.13
2023-06-30T22:28:44.604Z,4.10
2023-06-30T22:31:10.433Z,9.20
2023-06-30T22:33:36.378Z,7.78
2023-06-30T22:36:02.913Z,5.88
2023-06-30T22:38:28.972Z,4.30
2023-06-30T22:40:54.857Z,5.28
2023-06-30T22:43:20.667Z,5.82
2023-06-30T22:45:47.354Z,5.22
2023-06-30T22:48:13.340Z,5.50
2023-06-30T22:50:39.182Z,5.60
2023-06-30T22:53:06.108Z,6.78
2023-06-30T22:55:35.403Z,8.60
2023-06-30T22:58:01.348Z,7.97
2023-06-30T23:00:27.283Z,5.50
2023-06-30T23:02:53.317Z,5.43
2023-06-30T23:05:19.206Z,10.88
2023-06-30T23:07:46.794Z,4.25
2023-06-30T23:10:12.782Z,4.57
2023-06-30T23:12:38.930Z,5.88
2023-06-30T23:15:04.933Z,7.13
2023-06-30T23:17:30.878Z,5.85
2023-06-30T23:19:56.814Z,6.63
2023-06-30T23:22:26.442Z,5.97
2023-06-30T23:24:52.570Z,4.57
2023-06-30T23:27:19.191Z,7.25
2023-06-30T23:29:49.370Z,4.85
2023-06-30T23:32:16.026Z,9.55
2023-06-30T23:34:42.602Z,8.10
2023-06-30T23:37:11.771Z,5.60
2023-06-30T23:39:37.793Z,6.80
2023-06-30T23:42:03.827Z,5.35
2023-06-30T23:44:29.801Z,8.20
2023-06-30T23:46:55.697Z,6.30
2023-06-30T23:49:21.646Z,5.43
2023-06-30T23:51:47.512Z,8.45
2023-06-30T23:54:14.760Z,5.82
2023-06-30T23:56:40.962Z,4.93
2023-06-30T23:59:06.934Z,7.30
